sensor_id;sensor_type;location;lat;lon;timestamp;temperature;humidity
3778;DHT22;1904;50.076;8.660;2022-12-20T00:01:37;2.90;1.00
3778;DHT22;1904;50.076;8.660;2022-12-20T00:04:12;2.90;1.00
3778;DHT22;1904;50.076;8.660;2022-12-20T00:06:38;2.90;1.00
3778;DHT22;1904;50.076;8.660;2022-12-20T00:09:12;3.00;1.00
3778;DHT22;1904;50.076;8.660;2022-12-20T00:11:42;3.00;1.00
3778;DHT22;1904;50.076;8.660;2022-12-20T00:14:24;3.00;1.00
3778;DHT22;1904;50.076;8.660;2022-12-20T00:16:50;3.00;1.00
3778;DHT22;1904;50.076;8.660;2022-12-20T00:19:30;3.10;1.00
3778;DHT22;1904;50.076;8.660;2022-12-20T00:22:30;3.10;1.00
3778;DHT22;1904;50.076;8.660;2022-12-20T00:25:18;3.10;1.00
3778;DHT22;1904;50.076;8.660;2022-12-20T00:28:00;3.10;1.00
3778;DHT22;1904;50.076;8.660;2022-12-20T00:30:30;3.00;1.00
3778;DHT22;1904;50.076;8.660;2022-12-20T00:33:00;3.00;1.00
3778;DHT22;1904;50.076;8.660;2022-12-20T00:35:26;3.00;1.00
3778;DHT22;1904;50.076;8.660;2022-12-20T00:38:01;3.00;1.00
3778;DHT22;1904;50.076;8.660;2022-12-20T00:40:30;3.00;1.00
3778;DHT22;1904;50.076;8.660;2022-12-20T00:42:56;3.00;1.00
3778;DHT22;1904;50.076;8.660;2022-12-20T00:45:30;3.00;1.00
3778;DHT22;1904;50.076;8.660;2022-12-20T00:48:00;3.00;1.00
3778;DHT22;1904;50.076;8.660;2022-12-20T00:50:31;2.90;1.00
3778;DHT22;1904;50.076;8.660;2022-12-20T00:53:00;3.00;1.00
3778;DHT22;1904;50.076;8.660;2022-12-20T00:55:48;3.00;1.00
3778;DHT22;1904;50.076;8.660;2022-12-20T00:58:14;2.90;1.00
3778;DHT22;1904;50.076;8.660;2022-12-20T01:00:55;3.00;1.00
3778;DHT22;1904;50.076;8.660;2022-12-20T01:03:25;3.00;1.00
3778;DHT22;1904;50.076;8.660;2022-12-20T01:06:01;2.90;1.00
3778;DHT22;1904;50.076;8.660;2022-12-20T01:08:31;2.90;1.00
3778;DHT22;1904;50.076;8.660;2022-12-20T01:17:41;2.90;1.00
3778;DHT22;1904;50.076;8.660;2022-12-20T01:20:30;3.00;1.00
3778;DHT22;1904;50.076;8.660;2022-12-20T01:26:30;2.90;1.00
3778;DHT22;1904;50.076;8.660;2022-12-20T01:28:58;3.00;1.00
3778;DHT22;1904;50.076;8.660;2022-12-20T01:31:28;3.00;1.00
3778;DHT22;1904;50.076;8.660;2022-12-20T01:33:55;3.00;1.00
3778;DHT22;1904;50.076;8.660;2022-12-20T01:36:33;3.00;1.00
3778;DHT22;1904;50.076;8.660;2022-12-20T01:39:05;3.00;1.00
3778;DHT22;1904;50.076;8.660;2022-12-20T01:41:34;3.00;1.00
3778;DHT22;1904;50.076;8.660;2022-12-20T01:44:50;3.00;1.00
3778;DHT22;1904;50.076;8.660;2022-12-20T01:46:55;3.00;1.00
3778;DHT22;1904;50.076;8.660;2022-12-20T01:49:31;3.00;1.00
3778;DHT22;1904;50.076;8.660;2022-12-20T01:52:34;3.00;1.00
3778;DHT22;1904;50.076;8.660;2022-12-20T01:55:19;3.00;1.00
3778;DHT22;1904;50.076;8.660;2022-12-20T01:58:04;3.00;1.00
3778;DHT22;1904;50.076;8.660;2022-12-20T02:00:30;3.00;1.00
3778;DHT22;1904;50.076;8.660;2022-12-20T02:03:06;3.00;1.00
3778;DHT22;1904;50.076;8.660;2022-12-20T02:12:43;2.80;1.00
3778;DHT22;1904;50.076;8.660;2022-12-20T02:25:05;2.70;1.00
3778;DHT22;1904;50.076;8.660;2022-12-20T02:30:45;2.70;1.00
3778;DHT22;1904;50.076;8.660;2022-12-20T02:33:13;2.70;1.00
3778;DHT22;1904;50.076;8.660;2022-12-20T02:35:43;2.60;1.00
3778;DHT22;1904;50.076;8.660;2022-12-20T02:41:43;2.70;1.00
3778;DHT22;1904;50.076;8.660;2022-12-20T02:44:16;2.70;1.00
3778;DHT22;1904;50.076;8.660;2022-12-20T02:47:17;2.80;1.00
3778;DHT22;1904;50.076;8.660;2022-12-20T02:53:01;2.80;1.00
3778;DHT22;1904;50.076;8.660;2022-12-20T02:55:50;2.80;1.00
3778;DHT22;1904;50.076;8.660;2022-12-20T03:04:59;2.80;1.00
3778;DHT22;1904;50.076;8.660;2022-12-20T03:08:00;2.90;1.00
3778;DHT22;1904;50.076;8.660;2022-12-20T03:10:43;2.90;1.00
3778;DHT22;1904;50.076;8.660;2022-12-20T03:16:30;2.90;1.00
3778;DHT22;1904;50.076;8.660;2022-12-20T03:18:56;2.90;1.00
3778;DHT22;1904;50.076;8.660;2022-12-20T03:24:43;2.90;1.00
3778;DHT22;1904;50.076;8.660;2022-12-20T03:33:35;3.00;1.00
3778;DHT22;1904;50.076;8.660;2022-12-20T03:36:01;2.90;1.00
3778;DHT22;1904;50.076;8.660;2022-12-20T03:38:31;3.00;1.00
3778;DHT22;1904;50.076;8.660;2022-12-20T03:41:01;2.90;1.00
3778;DHT22;1904;50.076;8.660;2022-12-20T03:43:31;3.00;1.00
3778;DHT22;1904;50.076;8.660;2022-12-20T03:45:57;3.00;1.00
3778;DHT22;1904;50.076;8.660;2022-12-20T03:48:23;3.10;1.00
3778;DHT22;1904;50.076;8.660;2022-12-20T04:00:56;3.00;1.00
3778;DHT22;1904;50.076;8.660;2022-12-20T04:06:43;3.00;1.00
3778;DHT22;1904;50.076;8.660;2022-12-20T04:09:25;3.00;1.00
3778;DHT22;1904;50.076;8.660;2022-12-20T04:12:07;3.00;1.00
3778;DHT22;1904;50.076;8.660;2022-12-20T04:14:33;2.90;1.00
3778;DHT22;1904;50.076;8.660;2022-12-20T04:17:01;2.80;1.00
3778;DHT22;1904;50.076;8.660;2022-12-20T04:19:36;2.90;1.00
3778;DHT22;1904;50.076;8.660;2022-12-20T04:22:02;2.90;1.00
3778;DHT22;1904;50.076;8.660;2022-12-20T04:24:28;2.90;1.00
3778;DHT22;1904;50.076;8.660;2022-12-20T04:26:54;3.00;1.00
3778;DHT22;1904;50.076;8.660;2022-12-20T04:29:19;3.00;1.00
3778;DHT22;1904;50.076;8.660;2022-12-20T04:31:49;3.00;1.00
3778;DHT22;1904;50.076;8.660;2022-12-20T04:34:19;3.00;1.00
3778;DHT22;1904;50.076;8.660;2022-12-20T04:36:44;3.10;1.00
3778;DHT22;1904;50.076;8.660;2022-12-20T04:39:10;3.00;1.00
3778;DHT22;1904;50.076;8.660;2022-12-20T04:41:55;3.00;1.00
3778;DHT22;1904;50.076;8.660;2022-12-20T04:44:31;3.00;1.00
3778;DHT22;1904;50.076;8.660;2022-12-20T04:47:01;3.00;1.00
3778;DHT22;1904;50.076;8.660;2022-12-20T04:49:37;3.00;1.00
3778;DHT22;1904;50.076;8.660;2022-12-20T04:55:24;3.00;1.00
3778;DHT22;1904;50.076;8.660;2022-12-20T04:58:18;3.00;1.00
3778;DHT22;1904;50.076;8.660;2022-12-20T05:01:18;3.00;1.00
3778;DHT22;1904;50.076;8.660;2022-12-20T05:07:06;3.00;1.00
3778;DHT22;1904;50.076;8.660;2022-12-20T05:09:49;3.00;1.00
3778;DHT22;1904;50.076;8.660;2022-12-20T05:12:31;3.00;1.00
3778;DHT22;1904;50.076;8.660;2022-12-20T05:15:01;3.00;1.00
3778;DHT22;1904;50.076;8.660;2022-12-20T05:17:26;3.00;1.00
3778;DHT22;1904;50.076;8.660;2022-12-20T05:19:52;3.00;1.00
3778;DHT22;1904;50.076;8.660;2022-12-20T05:22:48;3.00;1.00
3778;DHT22;1904;50.076;8.660;2022-12-20T05:28:55;3.10;1.00
3778;DHT22;1904;50.076;8.660;2022-12-20T05:41:26;2.90;1.00
3778;DHT22;1904;50.076;8.660;2022-12-20T05:53:57;2.90;1.00
3778;DHT22;1904;50.076;8.660;2022-12-20T05:56:25;2.80;1.00
3778;DHT22;1904;50.076;8.660;2022-12-20T05:58:51;2.90;1.00
3778;DHT22;1904;50.076;8.660;2022-12-20T06:01:31;3.00;1.00
3778;DHT22;1904;50.076;8.660;2022-12-20T06:04:01;3.00;1.00
3778;DHT22;1904;50.076;8.660;2022-12-20T06:09:49;3.00;1.00
3778;DHT22;1904;50.076;8.660;2022-12-20T06:15:36;3.00;1.00
3778;DHT22;1904;50.076;8.660;2022-12-20T06:21:24;3.00;1.00
3778;DHT22;1904;50.076;8.660;2022-12-20T06:30:42;3.00;1.00
3778;DHT22;1904;50.076;8.660;2022-12-20T06:33:19;3.00;1.00
3778;DHT22;1904;50.076;8.660;2022-12-20T06:39:30;3.00;1.00
3778;DHT22;1904;50.076;8.660;2022-12-20T06:45:18;3.00;1.00
3778;DHT22;1904;50.076;8.660;2022-12-20T06:47:49;2.90;1.00
3778;DHT22;1904;50.076;8.660;2022-12-20T06:50:19;2.90;1.00
3778;DHT22;1904;50.076;8.660;2022-12-20T06:52:45;2.90;1.00
3778;DHT22;1904;50.076;8.660;2022-12-20T06:55:13;2.90;1.00
3778;DHT22;1904;50.076;8.660;2022-12-20T06:57:39;3.00;1.00
3778;DHT22;1904;50.076;8.660;2022-12-20T07:00:06;2.90;1.00
3778;DHT22;1904;50.076;8.660;2022-12-20T07:02:33;3.00;1.00
3778;DHT22;1904;50.076;8.660;2022-12-20T07:04:59;3.00;1.00
3778;DHT22;1904;50.076;8.660;2022-12-20T07:07:25;3.10;1.00
3778;DHT22;1904;50.076;8.660;2022-12-20T07:09:51;3.10;1.00
3778;DHT22;1904;50.076;8.660;2022-12-20T07:12:17;3.20;1.00
3778;DHT22;1904;50.076;8.660;2022-12-20T07:14:43;3.20;1.00
3778;DHT22;1904;50.076;8.660;2022-12-20T07:17:09;3.20;1.00
3778;DHT22;1904;50.076;8.660;2022-12-20T07:19:35;3.20;1.00
3778;DHT22;1904;50.076;8.660;2022-12-20T07:22:13;3.20;1.00
3778;DHT22;1904;50.076;8.660;2022-12-20T07:24:44;3.20;1.00
3778;DHT22;1904;50.076;8.660;2022-12-20T07:27:10;3.30;1.00
3778;DHT22;1904;50.076;8.660;2022-12-20T07:29:36;3.30;1.00
3778;DHT22;1904;50.076;8.660;2022-12-20T07:32:05;3.30;1.00
3778;DHT22;1904;50.076;8.660;2022-12-20T07:34:37;3.30;1.00
3778;DHT22;1904;50.076;8.660;2022-12-20T07:37:16;3.30;1.00
3778;DHT22;1904;50.076;8.660;2022-12-20T07:39:41;3.30;1.00
3778;DHT22;1904;50.076;8.660;2022-12-20T07:42:13;3.40;1.00
3778;DHT22;1904;50.076;8.660;2022-12-20T07:44:43;3.40;1.00
3778;DHT22;1904;50.076;8.660;2022-12-20T07:47:19;3.40;1.00
3778;DHT22;1904;50.076;8.660;2022-12-20T07:49:49;3.40;1.00
3778;DHT22;1904;50.076;8.660;2022-12-20T08:02:45;3.50;1.00
3778;DHT22;1904;50.076;8.660;2022-12-20T08:19:01;3.70;1.00
3778;DHT22;1904;50.076;8.660;2022-12-20T08:24:49;3.80;1.00
3778;DHT22;1904;50.076;8.660;2022-12-20T08:27:31;3.90;1.00
3778;DHT22;1904;50.076;8.660;2022-12-20T08:30:02;3.90;1.00
3778;DHT22;1904;50.076;8.660;2022-12-20T08:32:31;4.00;1.00
3778;DHT22;1904;50.076;8.660;2022-12-20T08:35:02;4.00;1.00
3778;DHT22;1904;50.076;8.660;2022-12-20T08:37:28;4.20;1.00
3778;DHT22;1904;50.076;8.660;2022-12-20T08:46:43;4.50;1.00
3778;DHT22;1904;50.076;8.660;2022-12-20T08:55:37;4.40;1.00
3778;DHT22;1904;50.076;8.660;2022-12-20T08:58:08;4.40;1.00
3778;DHT22;1904;50.076;8.660;2022-12-20T09:01:02;4.40;1.00
3778;DHT22;1904;50.076;8.660;2022-12-20T09:03:32;4.40;1.00
3778;DHT22;1904;50.076;8.660;2022-12-20T09:06:12;4.40;1.00
3778;DHT22;1904;50.076;8.660;2022-12-20T09:12:00;4.50;1.00
3778;DHT22;1904;50.076;8.660;2022-12-20T09:18:03;4.50;1.00
3778;DHT22;1904;50.076;8.660;2022-12-20T09:20:30;4.50;1.00
3778;DHT22;1904;50.076;8.660;2022-12-20T09:26:37;4.40;1.00
3778;DHT22;1904;50.076;8.660;2022-12-20T09:29:37;4.50;1.00
3778;DHT22;1904;50.076;8.660;2022-12-20T09:35:32;4.70;1.00
3778;DHT22;1904;50.076;8.660;2022-12-20T09:37:58;4.80;1.00
3778;DHT22;1904;50.076;8.660;2022-12-20T09:40:27;4.90;1.00
3778;DHT22;1904;50.076;8.660;2022-12-20T09:43:08;5.00;1.00
3778;DHT22;1904;50.076;8.660;2022-12-20T09:46:01;5.00;1.00
3778;DHT22;1904;50.076;8.660;2022-12-20T09:48:36;5.10;1.00
3778;DHT22;1904;50.076;8.660;2022-12-20T09:56:29;5.30;1.00
3778;DHT22;1904;50.076;8.660;2022-12-20T09:59:14;5.30;1.00
3778;DHT22;1904;50.076;8.660;2022-12-20T10:01:46;5.40;1.00
3778;DHT22;1904;50.076;8.660;2022-12-20T10:04:26;5.50;1.00
3778;DHT22;1904;50.076;8.660;2022-12-20T10:09:38;5.70;1.00
3778;DHT22;1904;50.076;8.660;2022-12-20T10:12:34;5.80;1.00
3778;DHT22;1904;50.076;8.660;2022-12-20T10:18:57;5.90;1.00
3778;DHT22;1904;50.076;8.660;2022-12-20T10:21:55;5.90;1.00
3778;DHT22;1904;50.076;8.660;2022-12-20T10:24:32;5.90;1.00
3778;DHT22;1904;50.076;8.660;2022-12-20T10:27:13;5.90;1.00
3778;DHT22;1904;50.076;8.660;2022-12-20T10:29:44;5.90;1.00
3778;DHT22;1904;50.076;8.660;2022-12-20T10:32:31;6.00;1.00
3778;DHT22;1904;50.076;8.660;2022-12-20T10:35:26;6.00;1.00
3778;DHT22;1904;50.076;8.660;2022-12-20T10:38:02;6.00;1.00
3778;DHT22;1904;50.076;8.660;2022-12-20T10:50:34;5.90;1.00
3778;DHT22;1904;50.076;8.660;2022-12-20T10:56:28;5.80;1.00
3778;DHT22;1904;50.076;8.660;2022-12-20T11:01:44;5.90;1.00
3778;DHT22;1904;50.076;8.660;2022-12-20T11:04:32;6.10;1.00
3778;DHT22;1904;50.076;8.660;2022-12-20T11:07:24;6.20;1.00
3778;DHT22;1904;50.076;8.660;2022-12-20T11:10:03;6.30;1.00
3778;DHT22;1904;50.076;8.660;2022-12-20T11:16:00;6.50;1.00
3778;DHT22;1904;50.076;8.660;2022-12-20T11:21:31;6.70;1.00
3778;DHT22;1904;50.076;8.660;2022-12-20T11:31:00;6.80;1.00
3778;DHT22;1904;50.076;8.660;2022-12-20T11:53:44;7.20;1.00
3778;DHT22;1904;50.076;8.660;2022-12-20T11:56:34;7.20;1.00
3778;DHT22;1904;50.076;8.660;2022-12-20T12:05:22;7.20;1.00
3778;DHT22;1904;50.076;8.660;2022-12-20T12:07:54;7.20;1.00
3778;DHT22;1904;50.076;8.660;2022-12-20T12:13:40;7.00;1.00
3778;DHT22;1904;50.076;8.660;2022-12-20T12:16:20;7.00;1.00
3778;DHT22;1904;50.076;8.660;2022-12-20T12:18:48;7.00;1.00
3778;DHT22;1904;50.076;8.660;2022-12-20T12:21:24;7.00;1.00
3778;DHT22;1904;50.076;8.660;2022-12-20T12:27:02;6.90;1.00
3778;DHT22;1904;50.076;8.660;2022-12-20T12:29:33;6.90;1.00
3778;DHT22;1904;50.076;8.660;2022-12-20T12:32:38;6.90;1.00
3778;DHT22;1904;50.076;8.660;2022-12-20T12:47:37;7.20;1.00
3778;DHT22;1904;50.076;8.660;2022-12-20T12:59:23;7.30;1.00
3778;DHT22;1904;50.076;8.660;2022-12-20T13:04:55;7.30;1.00
3778;DHT22;1904;50.076;8.660;2022-12-20T13:13:00;7.30;1.00
3778;DHT22;1904;50.076;8.660;2022-12-20T13:15:48;7.50;1.00
3778;DHT22;1904;50.076;8.660;2022-12-20T13:18:32;7.60;1.00
3778;DHT22;1904;50.076;8.660;2022-12-20T13:40:45;7.40;1.00
3778;DHT22;1904;50.076;8.660;2022-12-20T13:45:53;7.50;1.00
3778;DHT22;1904;50.076;8.660;2022-12-20T13:48:26;7.70;1.00
3778;DHT22;1904;50.076;8.660;2022-12-20T13:54:17;7.70;1.00
3778;DHT22;1904;50.076;8.660;2022-12-20T13:56:50;7.70;1.00
3778;DHT22;1904;50.076;8.660;2022-12-20T14:01:53;7.70;1.00
3778;DHT22;1904;50.076;8.660;2022-12-20T14:04:20;7.80;1.00
3778;DHT22;1904;50.076;8.660;2022-12-20T14:06:55;7.70;1.00
3778;DHT22;1904;50.076;8.660;2022-12-20T14:09:36;7.70;1.00
3778;DHT22;1904;50.076;8.660;2022-12-20T14:12:11;7.70;1.00
3778;DHT22;1904;50.076;8.660;2022-12-20T14:14:44;7.60;1.00
3778;DHT22;1904;50.076;8.660;2022-12-20T14:17:26;7.60;1.00
3778;DHT22;1904;50.076;8.660;2022-12-20T14:22:34;7.40;1.00
3778;DHT22;1904;50.076;8.660;2022-12-20T14:25:01;7.40;1.00
3778;DHT22;1904;50.076;8.660;2022-12-20T14:27:33;7.30;1.00
3778;DHT22;1904;50.076;8.660;2022-12-20T14:30:00;7.30;1.00
3778;DHT22;1904;50.076;8.660;2022-12-20T14:32:26;7.20;1.00
3778;DHT22;1904;50.076;8.660;2022-12-20T14:34:52;7.10;1.00
3778;DHT22;1904;50.076;8.660;2022-12-20T14:37:33;7.00;1.00
3778;DHT22;1904;50.076;8.660;2022-12-20T14:40:36;6.90;1.00
3778;DHT22;1904;50.076;8.660;2022-12-20T14:43:32;6.70;1.00
3778;DHT22;1904;50.076;8.660;2022-12-20T14:46:20;6.60;1.00
3778;DHT22;1904;50.076;8.660;2022-12-20T14:52:20;6.50;1.00
3778;DHT22;1904;50.076;8.660;2022-12-20T15:01:17;6.30;1.00
3778;DHT22;1904;50.076;8.660;2022-12-20T15:06:46;6.20;1.00
3778;DHT22;1904;50.076;8.660;2022-12-20T15:09:44;6.20;1.00
3778;DHT22;1904;50.076;8.660;2022-12-20T15:12:26;6.10;1.00
3778;DHT22;1904;50.076;8.660;2022-12-20T15:14:57;6.10;1.00
3778;DHT22;1904;50.076;8.660;2022-12-20T15:17:22;6.10;1.00
3778;DHT22;1904;50.076;8.660;2022-12-20T15:19:48;6.00;1.00
3778;DHT22;1904;50.076;8.660;2022-12-20T15:22:17;6.00;1.00
3778;DHT22;1904;50.076;8.660;2022-12-20T15:24:43;5.90;1.00
3778;DHT22;1904;50.076;8.660;2022-12-20T15:27:21;5.90;1.00
3778;DHT22;1904;50.076;8.660;2022-12-20T15:29:51;5.80;1.00
3778;DHT22;1904;50.076;8.660;2022-12-20T15:32:23;5.80;1.00
3778;DHT22;1904;50.076;8.660;2022-12-20T15:34:50;5.80;1.00
3778;DHT22;1904;50.076;8.660;2022-12-20T15:37:16;5.80;1.00
3778;DHT22;1904;50.076;8.660;2022-12-20T15:39:51;5.70;1.00
3778;DHT22;1904;50.076;8.660;2022-12-20T15:42:33;5.70;1.00
3778;DHT22;1904;50.076;8.660;2022-12-20T15:45:13;5.70;1.00
3778;DHT22;1904;50.076;8.660;2022-12-20T15:47:57;5.80;1.00
3778;DHT22;1904;50.076;8.660;2022-12-20T15:50:22;5.70;1.00
3778;DHT22;1904;50.076;8.660;2022-12-20T15:53:03;5.70;1.00
3778;DHT22;1904;50.076;8.660;2022-12-20T15:55:33;5.60;1.00
3778;DHT22;1904;50.076;8.660;2022-12-20T15:58:21;5.60;1.00
3778;DHT22;1904;50.076;8.660;2022-12-20T16:01:08;5.50;1.00
3778;DHT22;1904;50.076;8.660;2022-12-20T16:03:45;5.50;1.00
3778;DHT22;1904;50.076;8.660;2022-12-20T16:06:27;5.40;1.00
3778;DHT22;1904;50.076;8.660;2022-12-20T16:09:09;5.30;1.00
3778;DHT22;1904;50.076;8.660;2022-12-20T16:11:51;5.10;1.00
3778;DHT22;1904;50.076;8.660;2022-12-20T16:14:21;5.00;1.00
3778;DHT22;1904;50.076;8.660;2022-12-20T16:16:47;5.10;1.00
3778;DHT22;1904;50.076;8.660;2022-12-20T16:19:33;5.00;1.00
3778;DHT22;1904;50.076;8.660;2022-12-20T16:21:59;5.00;1.00
3778;DHT22;1904;50.076;8.660;2022-12-20T16:24:33;5.10;1.00
3778;DHT22;1904;50.076;8.660;2022-12-20T16:27:15;5.10;1.00
3778;DHT22;1904;50.076;8.660;2022-12-20T16:29:51;5.10;1.00
3778;DHT22;1904;50.076;8.660;2022-12-20T16:35:33;5.10;1.00
3778;DHT22;1904;50.076;8.660;2022-12-20T16:38:15;5.10;1.00
3778;DHT22;1904;50.076;8.660;2022-12-20T16:40:51;5.20;1.00
3778;DHT22;1904;50.076;8.660;2022-12-20T16:43:39;5.20;1.00
3778;DHT22;1904;50.076;8.660;2022-12-20T16:49:21;5.10;1.00
3778;DHT22;1904;50.076;8.660;2022-12-20T16:58:44;5.00;1.00
3778;DHT22;1904;50.076;8.660;2022-12-20T17:01:23;5.00;1.00
3778;DHT22;1904;50.076;8.660;2022-12-20T17:03:50;5.00;1.00
3778;DHT22;1904;50.076;8.660;2022-12-20T17:06:27;5.00;1.00
3778;DHT22;1904;50.076;8.660;2022-12-20T17:09:09;5.00;1.00
3778;DHT22;1904;50.076;8.660;2022-12-20T17:11:35;5.10;1.00
3778;DHT22;1904;50.076;8.660;2022-12-20T17:14:26;5.10;1.00
3778;DHT22;1904;50.076;8.660;2022-12-20T17:16:52;5.10;1.00
3778;DHT22;1904;50.076;8.660;2022-12-20T17:19:17;5.10;1.00
3778;DHT22;1904;50.076;8.660;2022-12-20T17:21:51;5.20;1.00
3778;DHT22;1904;50.076;8.660;2022-12-20T17:27:38;5.10;1.00
3778;DHT22;1904;50.076;8.660;2022-12-20T17:30:09;5.10;1.00
3778;DHT22;1904;50.076;8.660;2022-12-20T17:32:52;5.10;1.00
3778;DHT22;1904;50.076;8.660;2022-12-20T17:38:39;5.20;1.00
3778;DHT22;1904;50.076;8.660;2022-12-20T17:41:26;5.20;1.00
3778;DHT22;1904;50.076;8.660;2022-12-20T17:47:09;5.10;1.00
3778;DHT22;1904;50.076;8.660;2022-12-20T17:53:14;5.10;1.00
3778;DHT22;1904;50.076;8.660;2022-12-20T17:56:10;5.20;1.00
3778;DHT22;1904;50.076;8.660;2022-12-20T17:58:45;5.20;1.00
3778;DHT22;1904;50.076;8.660;2022-12-20T18:01:32;5.20;1.00
3778;DHT22;1904;50.076;8.660;2022-12-20T18:04:14;5.20;1.00
3778;DHT22;1904;50.076;8.660;2022-12-20T18:06:45;5.20;1.00
3778;DHT22;1904;50.076;8.660;2022-12-20T18:09:21;5.10;1.00
3778;DHT22;1904;50.076;8.660;2022-12-20T18:11:47;5.20;1.00
3778;DHT22;1904;50.076;8.660;2022-12-20T18:14:38;5.20;1.00
3778;DHT22;1904;50.076;8.660;2022-12-20T18:17:04;5.30;1.00
3778;DHT22;1904;50.076;8.660;2022-12-20T18:19:30;5.20;1.00
3778;DHT22;1904;50.076;8.660;2022-12-20T18:21:57;5.20;1.00
3778;DHT22;1904;50.076;8.660;2022-12-20T18:24:33;5.20;1.00
3778;DHT22;1904;50.076;8.660;2022-12-20T18:27:36;5.20;1.00
3778;DHT22;1904;50.076;8.660;2022-12-20T18:30:10;5.20;1.00
3778;DHT22;1904;50.076;8.660;2022-12-20T18:32:39;5.20;1.00
3778;DHT22;1904;50.076;8.660;2022-12-20T18:35:21;5.20;1.00
3778;DHT22;1904;50.076;8.660;2022-12-20T18:37:51;5.20;1.00
3778;DHT22;1904;50.076;8.660;2022-12-20T18:47:03;5.20;1.00
3778;DHT22;1904;50.076;8.660;2022-12-20T18:49:51;5.20;1.00
3778;DHT22;1904;50.076;8.660;2022-12-20T18:59:01;5.30;1.00
3778;DHT22;1904;50.076;8.660;2022-12-20T19:01:51;5.30;1.00
3778;DHT22;1904;50.076;8.660;2022-12-20T19:04:21;5.30;1.00
3778;DHT22;1904;50.076;8.660;2022-12-20T19:06:51;5.30;1.00
3778;DHT22;1904;50.076;8.660;2022-12-20T19:09:39;5.30;1.00
3778;DHT22;1904;50.076;8.660;2022-12-20T19:12:15;5.40;1.00
3778;DHT22;1904;50.076;8.660;2022-12-20T19:14:45;5.40;1.00
3778;DHT22;1904;50.076;8.660;2022-12-20T19:17:11;5.40;1.00
3778;DHT22;1904;50.076;8.660;2022-12-20T19:19:36;5.40;1.00
3778;DHT22;1904;50.076;8.660;2022-12-20T19:25:39;5.30;1.00
3778;DHT22;1904;50.076;8.660;2022-12-20T19:34:51;5.30;1.00
3778;DHT22;1904;50.076;8.660;2022-12-20T19:37:21;5.30;1.00
3778;DHT22;1904;50.076;8.660;2022-12-20T19:39:51;5.30;1.00
3778;DHT22;1904;50.076;8.660;2022-12-20T19:42:45;5.30;1.00
3778;DHT22;1904;50.076;8.660;2022-12-20T19:45:21;5.30;1.00
3778;DHT22;1904;50.076;8.660;2022-12-20T19:47:51;5.30;1.00
3778;DHT22;1904;50.076;8.660;2022-12-20T19:50:21;5.30;1.00
3778;DHT22;1904;50.076;8.660;2022-12-20T19:52:47;5.30;1.00
3778;DHT22;1904;50.076;8.660;2022-12-20T19:55:15;5.30;1.00
3778;DHT22;1904;50.076;8.660;2022-12-20T19:57:41;5.30;1.00
3778;DHT22;1904;50.076;8.660;2022-12-20T20:00:27;5.30;1.00
3778;DHT22;1904;50.076;8.660;2022-12-20T20:02:52;5.30;1.00
3778;DHT22;1904;50.076;8.660;2022-12-20T20:05:27;5.40;1.00
3778;DHT22;1904;50.076;8.660;2022-12-20T20:07:57;5.40;1.00
3778;DHT22;1904;50.076;8.660;2022-12-20T20:10:27;5.40;1.00
3778;DHT22;1904;50.076;8.660;2022-12-20T20:12:57;5.40;1.00
3778;DHT22;1904;50.076;8.660;2022-12-20T20:15:23;5.40;1.00
3778;DHT22;1904;50.076;8.660;2022-12-20T20:17:49;5.40;1.00
3778;DHT22;1904;50.076;8.660;2022-12-20T20:20:15;5.40;1.00
3778;DHT22;1904;50.076;8.660;2022-12-20T20:22:45;5.50;1.00
3778;DHT22;1904;50.076;8.660;2022-12-20T20:25:21;5.50;1.00
3778;DHT22;1904;50.076;8.660;2022-12-20T20:28:03;5.50;1.00
3778;DHT22;1904;50.076;8.660;2022-12-20T20:30:43;5.50;1.00
3778;DHT22;1904;50.076;8.660;2022-12-20T20:46:37;5.40;1.00
3778;DHT22;1904;50.076;8.660;2022-12-20T20:49:03;5.40;1.00
3778;DHT22;1904;50.076;8.660;2022-12-20T20:51:33;5.40;1.00
3778;DHT22;1904;50.076;8.660;2022-12-20T20:53:59;5.50;1.00
3778;DHT22;1904;50.076;8.660;2022-12-20T20:56:33;5.50;1.00
3778;DHT22;1904;50.076;8.660;2022-12-20T20:59:03;5.50;1.00
3778;DHT22;1904;50.076;8.660;2022-12-20T21:01:51;5.50;1.00
3778;DHT22;1904;50.076;8.660;2022-12-20T21:07:38;5.60;1.00
3778;DHT22;1904;50.076;8.660;2022-12-20T21:10:15;5.60;1.00
3778;DHT22;1904;50.076;8.660;2022-12-20T21:13:03;5.60;1.00
3778;DHT22;1904;50.076;8.660;2022-12-20T21:15:45;5.60;1.00
3778;DHT22;1904;50.076;8.660;2022-12-20T21:24:57;5.60;1.00
3778;DHT22;1904;50.076;8.660;2022-12-20T21:27:27;5.60;1.00
3778;DHT22;1904;50.076;8.660;2022-12-20T21:29:53;5.60;1.00
3778;DHT22;1904;50.076;8.660;2022-12-20T21:32:27;5.60;1.00
3778;DHT22;1904;50.076;8.660;2022-12-20T21:34:57;5.60;1.00
3778;DHT22;1904;50.076;8.660;2022-12-20T21:37:33;5.50;1.00
3778;DHT22;1904;50.076;8.660;2022-12-20T21:40:09;5.60;1.00
3778;DHT22;1904;50.076;8.660;2022-12-20T21:42:45;5.50;1.00
3778;DHT22;1904;50.076;8.660;2022-12-20T21:45:27;5.50;1.00
3778;DHT22;1904;50.076;8.660;2022-12-20T21:51:28;5.50;1.00
3778;DHT22;1904;50.076;8.660;2022-12-20T21:57:16;5.50;1.00
3778;DHT22;1904;50.076;8.660;2022-12-20T22:09:32;5.50;1.00
3778;DHT22;1904;50.076;8.660;2022-12-20T22:12:33;5.50;1.00
3778;DHT22;1904;50.076;8.660;2022-12-20T22:18:21;5.50;1.00
3778;DHT22;1904;50.076;8.660;2022-12-20T22:27:30;5.60;1.00
3778;DHT22;1904;50.076;8.660;2022-12-20T22:30:03;5.60;1.00
3778;DHT22;1904;50.076;8.660;2022-12-20T22:35:51;5.70;1.00
3778;DHT22;1904;50.076;8.660;2022-12-20T22:41:38;5.60;1.00
3778;DHT22;1904;50.076;8.660;2022-12-20T22:47:33;5.50;1.00
3778;DHT22;1904;50.076;8.660;2022-12-20T22:50:15;5.50;1.00
3778;DHT22;1904;50.076;8.660;2022-12-20T22:52:45;5.50;1.00
3778;DHT22;1904;50.076;8.660;2022-12-20T22:55:21;5.60;1.00
3778;DHT22;1904;50.076;8.660;2022-12-20T22:58:03;5.60;1.00
3778;DHT22;1904;50.076;8.660;2022-12-20T23:00:33;5.60;1.00
3778;DHT22;1904;50.076;8.660;2022-12-20T23:09:42;5.70;1.00
3778;DHT22;1904;50.076;8.660;2022-12-20T23:15:30;5.80;1.00
3778;DHT22;1904;50.076;8.660;2022-12-20T23:18:04;5.80;1.00
3778;DHT22;1904;50.076;8.660;2022-12-20T23:20:33;5.80;1.00
3778;DHT22;1904;50.076;8.660;2022-12-20T23:23:21;5.90;1.00
3778;DHT22;1904;50.076;8.660;2022-12-20T23:26:07;5.90;1.00
3778;DHT22;1904;50.076;8.660;2022-12-20T23:28:45;5.90;1.00
3778;DHT22;1904;50.076;8.660;2022-12-20T23:31:27;6.00;1.00
3778;DHT22;1904;50.076;8.660;2022-12-20T23:34:15;5.90;1.00
3778;DHT22;1904;50.076;8.660;2022-12-20T23:40:03;6.00;1.00
3778;DHT22;1904;50.076;8.660;2022-12-20T23:42:45;6.00;1.00
3778;DHT22;1904;50.076;8.660;2022-12-20T23:48:33;6.10;1.00
3778;DHT22;1904;50.076;8.660;2022-12-20T23:50:58;6.10;1.00
